sensor_id;sensor_type;location;lat;lon;timestamp;P1;durP1;ratioP1;P2;durP2;ratioP2
5058;SDS011;2548;52.050;11.036;2022-08-25T00:01:46;11.30;;;6.80;;
5058;SDS011;2548;52.050;11.036;2022-08-25T00:04:17;14.80;;;7.57;;
5058;SDS011;2548;52.050;11.036;2022-08-25T00:06:45;10.57;;;7.30;;
5058;SDS011;2548;52.050;11.036;2022-08-25T00:09:14;9.20;;;7.60;;
5058;SDS011;2548;52.050;11.036;2022-08-25T00:11:43;8.63;;;7.77;;
5058;SDS011;2548;52.050;11.036;2022-08-25T00:14:15;9.87;;;7.53;;
5058;SDS011;2548;52.050;11.036;2022-08-25T00:16:45;8.70;;;6.83;;
5058;SDS011;2548;52.050;11.036;2022-08-25T00:19:13;10.40;;;6.93;;
5058;SDS011;2548;52.050;11.036;2022-08-25T00:21:44;8.10;;;7.40;;
5058;SDS011;2548;52.050;11.036;2022-08-25T00:24:13;8.13;;;7.23;;
5058;SDS011;2548;52.050;11.036;2022-08-25T00:26:43;8.03;;;7.33;;
5058;SDS011;2548;52.050;11.036;2022-08-25T00:29:13;9.37;;;7.63;;
5058;SDS011;2548;52.050;11.036;2022-08-25T00:31:41;13.17;;;8.23;;
5058;SDS011;2548;52.050;11.036;2022-08-25T00:34:11;8.97;;;8.13;;
5058;SDS011;2548;52.050;11.036;2022-08-25T00:36:40;16.83;;;8.07;;
5058;SDS011;2548;52.050;11.036;2022-08-25T00:39:09;8.50;;;7.73;;
5058;SDS011;2548;52.050;11.036;2022-08-25T00:41:37;11.80;;;7.77;;
5058;SDS011;2548;52.050;11.036;2022-08-25T00:44:08;9.57;;;8.57;;
5058;SDS011;2548;52.050;11.036;2022-08-25T00:46:39;8.57;;;7.73;;
5058;SDS011;2548;52.050;11.036;2022-08-25T00:49:09;12.20;;;8.37;;
5058;SDS011;2548;52.050;11.036;2022-08-25T00:51:41;11.23;;;7.93;;
5058;SDS011;2548;52.050;11.036;2022-08-25T00:54:13;11.60;;;8.00;;
5058;SDS011;2548;52.050;11.036;2022-08-25T00:56:44;11.37;;;7.50;;
5058;SDS011;2548;52.050;11.036;2022-08-25T00:59:13;9.13;;;7.37;;
5058;SDS011;2548;52.050;11.036;2022-08-25T01:01:41;9.77;;;8.03;;
5058;SDS011;2548;52.050;11.036;2022-08-25T01:04:09;9.77;;;8.77;;
5058;SDS011;2548;52.050;11.036;2022-08-25T01:06:38;10.97;;;7.80;;
5058;SDS011;2548;52.050;11.036;2022-08-25T01:09:09;9.50;;;7.40;;
5058;SDS011;2548;52.050;11.036;2022-08-25T01:11:38;15.30;;;8.43;;
5058;SDS011;2548;52.050;11.036;2022-08-25T01:14:06;12.53;;;8.00;;
5058;SDS011;2548;52.050;11.036;2022-08-25T01:16:36;12.53;;;7.93;;
5058;SDS011;2548;52.050;11.036;2022-08-25T01:19:05;8.33;;;7.53;;
5058;SDS011;2548;52.050;11.036;2022-08-25T01:21:40;22.73;;;7.77;;
5058;SDS011;2548;52.050;11.036;2022-08-25T01:24:10;14.63;;;8.70;;
5058;SDS011;2548;52.050;11.036;2022-08-25T01:26:41;10.93;;;8.87;;
5058;SDS011;2548;52.050;11.036;2022-08-25T01:29:09;8.63;;;7.60;;
5058;SDS011;2548;52.050;11.036;2022-08-25T01:31:51;8.10;;;7.30;;
5058;SDS011;2548;52.050;11.036;2022-08-25T01:34:22;11.30;;;8.33;;
5058;SDS011;2548;52.050;11.036;2022-08-25T01:36:52;10.63;;;7.70;;
5058;SDS011;2548;52.050;11.036;2022-08-25T01:39:21;12.13;;;8.30;;
5058;SDS011;2548;52.050;11.036;2022-08-25T01:41:53;12.07;;;9.10;;
5058;SDS011;2548;52.050;11.036;2022-08-25T01:44:30;17.53;;;8.50;;
5058;SDS011;2548;52.050;11.036;2022-08-25T01:46:59;12.57;;;9.20;;
5058;SDS011;2548;52.050;11.036;2022-08-25T01:49:27;10.33;;;9.20;;
5058;SDS011;2548;52.050;11.036;2022-08-25T01:51:56;15.40;;;8.80;;
5058;SDS011;2548;52.050;11.036;2022-08-25T01:54:27;11.67;;;8.97;;
5058;SDS011;2548;52.050;11.036;2022-08-25T01:56:56;10.90;;;8.87;;
5058;SDS011;2548;52.050;11.036;2022-08-25T01:59:24;12.60;;;10.10;;
5058;SDS011;2548;52.050;11.036;2022-08-25T02:01:52;12.93;;;9.53;;
5058;SDS011;2548;52.050;11.036;2022-08-25T02:04:20;13.50;;;9.90;;
5058;SDS011;2548;52.050;11.036;2022-08-25T02:06:47;18.20;;;9.83;;
5058;SDS011;2548;52.050;11.036;2022-08-25T02:09:17;11.40;;;9.13;;
5058;SDS011;2548;52.050;11.036;2022-08-25T02:11:45;18.73;;;10.80;;
5058;SDS011;2548;52.050;11.036;2022-08-25T02:14:13;15.40;;;11.00;;
5058;SDS011;2548;52.050;11.036;2022-08-25T02:16:44;19.00;;;10.93;;
5058;SDS011;2548;52.050;11.036;2022-08-25T02:19:13;23.17;;;9.37;;
5058;SDS011;2548;52.050;11.036;2022-08-25T02:21:42;19.43;;;9.73;;
5058;SDS011;2548;52.050;11.036;2022-08-25T02:24:10;10.70;;;9.23;;
5058;SDS011;2548;52.050;11.036;2022-08-25T02:26:39;15.50;;;9.50;;
5058;SDS011;2548;52.050;11.036;2022-08-25T02:29:07;15.23;;;9.03;;
5058;SDS011;2548;52.050;11.036;2022-08-25T02:31:35;9.27;;;8.33;;
5058;SDS011;2548;52.050;11.036;2022-08-25T02:34:02;19.90;;;9.10;;
5058;SDS011;2548;52.050;11.036;2022-08-25T02:36:30;14.13;;;8.40;;
5058;SDS011;2548;52.050;11.036;2022-08-25T02:38:58;11.70;;;9.30;;
5058;SDS011;2548;52.050;11.036;2022-08-25T02:41:26;9.70;;;8.27;;
5058;SDS011;2548;52.050;11.036;2022-08-25T02:43:56;12.73;;;8.40;;
5058;SDS011;2548;52.050;11.036;2022-08-25T02:46:23;9.13;;;8.20;;
5058;SDS011;2548;52.050;11.036;2022-08-25T02:48:51;9.53;;;8.03;;
5058;SDS011;2548;52.050;11.036;2022-08-25T02:51:18;11.80;;;10.07;;
5058;SDS011;2548;52.050;11.036;2022-08-25T02:53:47;17.15;;;10.10;;
5058;SDS011;2548;52.050;11.036;2022-08-25T02:56:17;17.70;;;10.10;;
5058;SDS011;2548;52.050;11.036;2022-08-25T02:58:45;15.98;;;11.50;;
5058;SDS011;2548;52.050;11.036;2022-08-25T03:01:15;14.07;;;9.73;;
5058;SDS011;2548;52.050;11.036;2022-08-25T03:03:43;11.83;;;9.97;;
5058;SDS011;2548;52.050;11.036;2022-08-25T03:06:13;14.00;;;9.77;;
5058;SDS011;2548;52.050;11.036;2022-08-25T03:08:43;15.33;;;10.87;;
5058;SDS011;2548;52.050;11.036;2022-08-25T03:11:11;19.50;;;10.03;;
5058;SDS011;2548;52.050;11.036;2022-08-25T03:13:39;13.07;;;10.80;;
5058;SDS011;2548;52.050;11.036;2022-08-25T03:16:06;10.70;;;9.50;;
5058;SDS011;2548;52.050;11.036;2022-08-25T03:18:36;12.48;;;10.63;;
5058;SDS011;2548;52.050;11.036;2022-08-25T03:21:04;13.43;;;10.70;;
5058;SDS011;2548;52.050;11.036;2022-08-25T03:23:32;19.07;;;11.27;;
5058;SDS011;2548;52.050;11.036;2022-08-25T03:25:59;12.90;;;11.37;;
5058;SDS011;2548;52.050;11.036;2022-08-25T03:28:44;23.60;;;11.87;;
5058;SDS011;2548;52.050;11.036;2022-08-25T03:31:12;19.17;;;14.17;;
5058;SDS011;2548;52.050;11.036;2022-08-25T03:33:41;20.90;;;14.30;;
5058;SDS011;2548;52.050;11.036;2022-08-25T03:36:08;20.90;;;12.67;;
5058;SDS011;2548;52.050;11.036;2022-08-25T03:38:36;21.50;;;13.80;;
5058;SDS011;2548;52.050;11.036;2022-08-25T03:41:10;22.00;;;13.57;;
5058;SDS011;2548;52.050;11.036;2022-08-25T03:43:40;23.83;;;12.90;;
5058;SDS011;2548;52.050;11.036;2022-08-25T03:46:08;20.50;;;12.70;;
5058;SDS011;2548;52.050;11.036;2022-08-25T03:48:43;19.58;;;14.32;;
5058;SDS011;2548;52.050;11.036;2022-08-25T03:51:10;19.48;;;14.85;;
5058;SDS011;2548;52.050;11.036;2022-08-25T03:53:38;24.77;;;15.00;;
5058;SDS011;2548;52.050;11.036;2022-08-25T03:56:06;22.70;;;13.97;;
5058;SDS011;2548;52.050;11.036;2022-08-25T03:58:34;26.23;;;14.23;;
5058;SDS011;2548;52.050;11.036;2022-08-25T04:01:01;22.63;;;13.97;;
5058;SDS011;2548;52.050;11.036;2022-08-25T04:03:29;19.70;;;12.60;;
5058;SDS011;2548;52.050;11.036;2022-08-25T04:06:00;17.47;;;12.10;;
5058;SDS011;2548;52.050;11.036;2022-08-25T04:08:28;22.10;;;14.73;;
5058;SDS011;2548;52.050;11.036;2022-08-25T04:10:56;29.83;;;12.63;;
5058;SDS011;2548;52.050;11.036;2022-08-25T04:13:23;25.77;;;13.43;;
5058;SDS011;2548;52.050;11.036;2022-08-25T04:15:51;18.43;;;11.10;;
5058;SDS011;2548;52.050;11.036;2022-08-25T04:18:18;21.33;;;13.60;;
5058;SDS011;2548;52.050;11.036;2022-08-25T04:20:46;18.17;;;13.57;;
5058;SDS011;2548;52.050;11.036;2022-08-25T04:23:15;30.95;;;13.98;;
5058;SDS011;2548;52.050;11.036;2022-08-25T04:25:42;21.73;;;15.50;;
5058;SDS011;2548;52.050;11.036;2022-08-25T04:28:10;17.60;;;12.97;;
5058;SDS011;2548;52.050;11.036;2022-08-25T04:30:40;27.53;;;14.70;;
5058;SDS011;2548;52.050;11.036;2022-08-25T04:33:08;22.53;;;14.70;;
5058;SDS011;2548;52.050;11.036;2022-08-25T04:35:35;21.60;;;15.00;;
5058;SDS011;2548;52.050;11.036;2022-08-25T04:38:03;23.40;;;14.63;;
5058;SDS011;2548;52.050;11.036;2022-08-25T04:40:32;16.80;;;13.93;;
5058;SDS011;2548;52.050;11.036;2022-08-25T04:43:00;36.53;;;16.65;;
5058;SDS011;2548;52.050;11.036;2022-08-25T04:45:27;24.90;;;15.40;;
5058;SDS011;2548;52.050;11.036;2022-08-25T04:47:54;28.67;;;15.10;;
5058;SDS011;2548;52.050;11.036;2022-08-25T04:50:25;29.87;;;15.23;;
5058;SDS011;2548;52.050;11.036;2022-08-25T04:52:53;23.03;;;15.20;;
5058;SDS011;2548;52.050;11.036;2022-08-25T04:55:20;33.83;;;16.43;;
5058;SDS011;2548;52.050;11.036;2022-08-25T04:57:49;22.77;;;13.83;;
5058;SDS011;2548;52.050;11.036;2022-08-25T05:00:17;22.10;;;13.17;;
5058;SDS011;2548;52.050;11.036;2022-08-25T05:02:45;25.70;;;12.07;;
5058;SDS011;2548;52.050;11.036;2022-08-25T05:05:12;22.30;;;13.93;;
5058;SDS011;2548;52.050;11.036;2022-08-25T05:07:40;34.80;;;12.50;;
5058;SDS011;2548;52.050;11.036;2022-08-25T05:10:08;30.63;;;13.00;;
5058;SDS011;2548;52.050;11.036;2022-08-25T05:12:36;29.00;;;12.70;;
5058;SDS011;2548;52.050;11.036;2022-08-25T05:15:05;32.13;;;14.20;;
5058;SDS011;2548;52.050;11.036;2022-08-25T05:17:47;24.40;;;11.87;;
5058;SDS011;2548;52.050;11.036;2022-08-25T05:20:14;25.00;;;11.90;;
5058;SDS011;2548;52.050;11.036;2022-08-25T05:22:43;24.93;;;11.73;;
5058;SDS011;2548;52.050;11.036;2022-08-25T05:25:11;25.27;;;13.67;;
5058;SDS011;2548;52.050;11.036;2022-08-25T05:27:40;25.53;;;13.93;;
5058;SDS011;2548;52.050;11.036;2022-08-25T05:30:10;27.60;;;12.60;;
5058;SDS011;2548;52.050;11.036;2022-08-25T05:32:38;26.47;;;12.23;;
5058;SDS011;2548;52.050;11.036;2022-08-25T05:35:06;24.83;;;15.73;;
5058;SDS011;2548;52.050;11.036;2022-08-25T05:37:34;25.00;;;13.70;;
5058;SDS011;2548;52.050;11.036;2022-08-25T05:40:03;36.67;;;14.00;;
5058;SDS011;2548;52.050;11.036;2022-08-25T05:42:31;41.93;;;15.17;;
5058;SDS011;2548;52.050;11.036;2022-08-25T05:44:59;21.20;;;12.50;;
5058;SDS011;2548;52.050;11.036;2022-08-25T05:47:27;19.03;;;14.40;;
5058;SDS011;2548;52.050;11.036;2022-08-25T05:49:55;16.77;;;13.20;;
5058;SDS011;2548;52.050;11.036;2022-08-25T05:52:22;22.90;;;15.90;;
5058;SDS011;2548;52.050;11.036;2022-08-25T05:54:52;31.50;;;17.00;;
5058;SDS011;2548;52.050;11.036;2022-08-25T05:57:19;21.07;;;15.33;;
5058;SDS011;2548;52.050;11.036;2022-08-25T05:59:47;23.70;;;17.87;;
5058;SDS011;2548;52.050;11.036;2022-08-25T06:02:14;26.83;;;18.17;;
5058;SDS011;2548;52.050;11.036;2022-08-25T06:05:01;26.13;;;19.87;;
5058;SDS011;2548;52.050;11.036;2022-08-25T06:07:28;39.00;;;19.70;;
5058;SDS011;2548;52.050;11.036;2022-08-25T06:09:56;36.87;;;20.87;;
5058;SDS011;2548;52.050;11.036;2022-08-25T06:12:23;28.70;;;18.70;;
5058;SDS011;2548;52.050;11.036;2022-08-25T06:14:50;31.10;;;19.10;;
5058;SDS011;2548;52.050;11.036;2022-08-25T06:17:18;29.80;;;18.73;;
5058;SDS011;2548;52.050;11.036;2022-08-25T06:19:45;26.67;;;19.90;;
5058;SDS011;2548;52.050;11.036;2022-08-25T06:22:14;27.63;;;19.87;;
5058;SDS011;2548;52.050;11.036;2022-08-25T06:24:41;27.23;;;16.97;;
5058;SDS011;2548;52.050;11.036;2022-08-25T06:27:09;20.93;;;16.40;;
5058;SDS011;2548;52.050;11.036;2022-08-25T06:29:37;30.00;;;19.67;;
5058;SDS011;2548;52.050;11.036;2022-08-25T06:32:04;40.50;;;21.53;;
5058;SDS011;2548;52.050;11.036;2022-08-25T06:34:32;36.47;;;23.53;;
5058;SDS011;2548;52.050;11.036;2022-08-25T06:37:00;25.47;;;19.80;;
5058;SDS011;2548;52.050;11.036;2022-08-25T06:39:29;37.73;;;21.50;;
5058;SDS011;2548;52.050;11.036;2022-08-25T06:41:56;21.40;;;18.00;;
5058;SDS011;2548;52.050;11.036;2022-08-25T06:44:25;24.00;;;18.97;;
5058;SDS011;2548;52.050;11.036;2022-08-25T06:46:52;40.37;;;19.53;;
5058;SDS011;2548;52.050;11.036;2022-08-25T06:49:20;24.53;;;18.97;;
5058;SDS011;2548;52.050;11.036;2022-08-25T06:51:47;26.00;;;19.03;;
5058;SDS011;2548;52.050;11.036;2022-08-25T06:54:15;28.73;;;19.47;;
5058;SDS011;2548;52.050;11.036;2022-08-25T06:56:44;26.10;;;18.97;;
5058;SDS011;2548;52.050;11.036;2022-08-25T06:59:12;38.03;;;20.60;;
5058;SDS011;2548;52.050;11.036;2022-08-25T07:01:39;26.00;;;18.30;;
5058;SDS011;2548;52.050;11.036;2022-08-25T07:04:07;23.73;;;16.80;;
5058;SDS011;2548;52.050;11.036;2022-08-25T07:06:34;24.57;;;17.17;;
5058;SDS011;2548;52.050;11.036;2022-08-25T07:09:03;32.13;;;18.53;;
5058;SDS011;2548;52.050;11.036;2022-08-25T07:11:32;21.67;;;16.77;;
5058;SDS011;2548;52.050;11.036;2022-08-25T07:14:02;24.60;;;16.50;;
5058;SDS011;2548;52.050;11.036;2022-08-25T07:16:31;22.50;;;15.80;;
5058;SDS011;2548;52.050;11.036;2022-08-25T07:18:59;21.30;;;18.10;;
5058;SDS011;2548;52.050;11.036;2022-08-25T07:21:28;29.10;;;18.60;;
5058;SDS011;2548;52.050;11.036;2022-08-25T07:23:56;26.00;;;19.77;;
5058;SDS011;2548;52.050;11.036;2022-08-25T07:26:25;26.63;;;16.77;;
5058;SDS011;2548;52.050;11.036;2022-08-25T07:28:54;34.57;;;17.87;;
5058;SDS011;2548;52.050;11.036;2022-08-25T07:31:24;21.30;;;17.00;;
5058;SDS011;2548;52.050;11.036;2022-08-25T07:33:51;26.33;;;16.70;;
5058;SDS011;2548;52.050;11.036;2022-08-25T07:36:36;28.57;;;18.23;;
5058;SDS011;2548;52.050;11.036;2022-08-25T07:39:04;22.57;;;18.60;;
5058;SDS011;2548;52.050;11.036;2022-08-25T07:41:34;26.27;;;17.07;;
5058;SDS011;2548;52.050;11.036;2022-08-25T07:44:03;26.13;;;17.20;;
5058;SDS011;2548;52.050;11.036;2022-08-25T07:46:32;25.83;;;16.87;;
5058;SDS011;2548;52.050;11.036;2022-08-25T07:49:00;25.40;;;17.60;;
5058;SDS011;2548;52.050;11.036;2022-08-25T07:51:27;20.77;;;17.20;;
5058;SDS011;2548;52.050;11.036;2022-08-25T07:53:55;28.37;;;17.40;;
5058;SDS011;2548;52.050;11.036;2022-08-25T07:56:22;37.00;;;18.20;;
5058;SDS011;2548;52.050;11.036;2022-08-25T07:58:50;25.37;;;16.63;;
5058;SDS011;2548;52.050;11.036;2022-08-25T08:01:18;33.30;;;17.27;;
5058;SDS011;2548;52.050;11.036;2022-08-25T08:03:49;22.47;;;16.90;;
5058;SDS011;2548;52.050;11.036;2022-08-25T08:06:18;34.33;;;18.30;;
5058;SDS011;2548;52.050;11.036;2022-08-25T08:08:47;30.27;;;19.50;;
5058;SDS011;2548;52.050;11.036;2022-08-25T08:11:18;43.17;;;19.00;;
5058;SDS011;2548;52.050;11.036;2022-08-25T08:13:47;31.63;;;18.70;;
5058;SDS011;2548;52.050;11.036;2022-08-25T08:16:17;26.47;;;17.50;;
5058;SDS011;2548;52.050;11.036;2022-08-25T08:18:46;27.80;;;18.17;;
5058;SDS011;2548;52.050;11.036;2022-08-25T08:21:16;24.37;;;16.27;;
5058;SDS011;2548;52.050;11.036;2022-08-25T08:23:45;22.00;;;17.60;;
5058;SDS011;2548;52.050;11.036;2022-08-25T08:26:13;25.30;;;16.30;;
5058;SDS011;2548;52.050;11.036;2022-08-25T08:28:41;27.97;;;17.63;;
5058;SDS011;2548;52.050;11.036;2022-08-25T08:31:09;23.73;;;17.17;;
5058;SDS011;2548;52.050;11.036;2022-08-25T08:33:37;27.43;;;16.60;;
5058;SDS011;2548;52.050;11.036;2022-08-25T08:36:06;24.20;;;15.57;;
5058;SDS011;2548;52.050;11.036;2022-08-25T08:38:37;32.07;;;16.13;;
5058;SDS011;2548;52.050;11.036;2022-08-25T08:41:11;25.87;;;16.00;;
5058;SDS011;2548;52.050;11.036;2022-08-25T08:44:05;22.13;;;14.40;;
5058;SDS011;2548;52.050;11.036;2022-08-25T08:46:41;18.40;;;14.90;;
5058;SDS011;2548;52.050;11.036;2022-08-25T08:49:17;25.97;;;15.17;;
5058;SDS011;2548;52.050;11.036;2022-08-25T08:51:58;25.63;;;13.10;;
5058;SDS011;2548;52.050;11.036;2022-08-25T08:54:30;24.43;;;13.50;;
5058;SDS011;2548;52.050;11.036;2022-08-25T08:57:02;28.07;;;15.70;;
5058;SDS011;2548;52.050;11.036;2022-08-25T08:59:38;15.23;;;13.53;;
5058;SDS011;2548;52.050;11.036;2022-08-25T09:02:11;24.50;;;13.43;;
5058;SDS011;2548;52.050;11.036;2022-08-25T09:04:43;36.60;;;13.27;;
5058;SDS011;2548;52.050;11.036;2022-08-25T09:07:15;21.87;;;14.17;;
5058;SDS011;2548;52.050;11.036;2022-08-25T09:09:48;24.90;;;14.10;;
5058;SDS011;2548;52.050;11.036;2022-08-25T09:12:19;23.03;;;14.90;;
5058;SDS011;2548;52.050;11.036;2022-08-25T09:14:56;25.20;;;14.13;;
5058;SDS011;2548;52.050;11.036;2022-08-25T09:17:35;18.70;;;14.53;;
5058;SDS011;2548;52.050;11.036;2022-08-25T09:20:16;16.43;;;13.17;;
5058;SDS011;2548;52.050;11.036;2022-08-25T09:23:00;13.23;;;11.20;;
5058;SDS011;2548;52.050;11.036;2022-08-25T09:25:38;32.13;;;12.73;;
5058;SDS011;2548;52.050;11.036;2022-08-25T09:28:13;19.93;;;11.77;;
5058;SDS011;2548;52.050;11.036;2022-08-25T09:30:48;14.03;;;10.40;;
5058;SDS011;2548;52.050;11.036;2022-08-25T09:33:20;24.87;;;12.20;;
5058;SDS011;2548;52.050;11.036;2022-08-25T09:35:50;17.40;;;11.40;;
5058;SDS011;2548;52.050;11.036;2022-08-25T09:38:19;16.27;;;11.40;;
5058;SDS011;2548;52.050;11.036;2022-08-25T09:40:49;20.10;;;11.00;;
5058;SDS011;2548;52.050;11.036;2022-08-25T09:43:20;19.20;;;10.20;;
5058;SDS011;2548;52.050;11.036;2022-08-25T09:45:56;17.70;;;10.00;;
5058;SDS011;2548;52.050;11.036;2022-08-25T09:48:27;13.00;;;10.37;;
5058;SDS011;2548;52.050;11.036;2022-08-25T09:51:09;13.93;;;10.30;;
5058;SDS011;2548;52.050;11.036;2022-08-25T09:53:45;21.30;;;9.60;;
5058;SDS011;2548;52.050;11.036;2022-08-25T09:56:19;14.10;;;9.33;;
5058;SDS011;2548;52.050;11.036;2022-08-25T09:58:49;20.67;;;9.80;;
5058;SDS011;2548;52.050;11.036;2022-08-25T10:01:18;17.63;;;10.30;;
5058;SDS011;2548;52.050;11.036;2022-08-25T10:03:56;25.17;;;9.67;;
5058;SDS011;2548;52.050;11.036;2022-08-25T10:06:27;18.80;;;10.40;;
5058;SDS011;2548;52.050;11.036;2022-08-25T10:09:00;12.10;;;10.60;;
5058;SDS011;2548;52.050;11.036;2022-08-25T10:11:34;13.23;;;9.37;;
5058;SDS011;2548;52.050;11.036;2022-08-25T10:17:10;15.00;;;9.63;;
5058;SDS011;2548;52.050;11.036;2022-08-25T10:19:41;14.57;;;9.23;;
5058;SDS011;2548;52.050;11.036;2022-08-25T10:22:10;12.27;;;9.10;;
5058;SDS011;2548;52.050;11.036;2022-08-25T10:24:46;25.30;;;9.80;;
5058;SDS011;2548;52.050;11.036;2022-08-25T10:27:19;16.63;;;8.90;;
5058;SDS011;2548;52.050;11.036;2022-08-25T10:32:48;19.90;;;7.97;;
5058;SDS011;2548;52.050;11.036;2022-08-25T10:35:29;11.23;;;8.83;;
5058;SDS011;2548;52.050;11.036;2022-08-25T10:38:07;14.03;;;8.93;;
5058;SDS011;2548;52.050;11.036;2022-08-25T10:40:51;17.13;;;9.60;;
5058;SDS011;2548;52.050;11.036;2022-08-25T10:43:27;16.80;;;9.10;;
5058;SDS011;2548;52.050;11.036;2022-08-25T10:46:00;10.43;;;8.40;;
5058;SDS011;2548;52.050;11.036;2022-08-25T10:51:30;15.20;;;9.20;;
5058;SDS011;2548;52.050;11.036;2022-08-25T10:54:16;20.10;;;8.30;;
5058;SDS011;2548;52.050;11.036;2022-08-25T10:56:53;14.63;;;7.97;;
5058;SDS011;2548;52.050;11.036;2022-08-25T11:02:31;13.60;;;7.93;;
5058;SDS011;2548;52.050;11.036;2022-08-25T11:05:29;14.80;;;8.70;;
5058;SDS011;2548;52.050;11.036;2022-08-25T11:08:04;12.20;;;8.13;;
5058;SDS011;2548;52.050;11.036;2022-08-25T11:10:37;12.07;;;8.97;;
5058;SDS011;2548;52.050;11.036;2022-08-25T11:13:10;11.87;;;8.13;;
5058;SDS011;2548;52.050;11.036;2022-08-25T11:15:49;14.80;;;8.73;;
5058;SDS011;2548;52.050;11.036;2022-08-25T11:18:19;9.70;;;8.70;;
5058;SDS011;2548;52.050;11.036;2022-08-25T11:20:49;13.03;;;7.73;;
5058;SDS011;2548;52.050;11.036;2022-08-25T11:23:24;12.30;;;7.90;;
5058;SDS011;2548;52.050;11.036;2022-08-25T11:25:56;18.27;;;8.87;;
5058;SDS011;2548;52.050;11.036;2022-08-25T11:28:29;20.57;;;8.57;;
5058;SDS011;2548;52.050;11.036;2022-08-25T11:31:01;15.60;;;7.67;;
5058;SDS011;2548;52.050;11.036;2022-08-25T11:33:30;12.33;;;8.33;;
5058;SDS011;2548;52.050;11.036;2022-08-25T11:35:59;15.70;;;8.30;;
5058;SDS011;2548;52.050;11.036;2022-08-25T11:38:34;12.00;;;8.23;;
5058;SDS011;2548;52.050;11.036;2022-08-25T11:41:15;12.53;;;8.20;;
5058;SDS011;2548;52.050;11.036;2022-08-25T11:43:52;12.43;;;8.27;;
5058;SDS011;2548;52.050;11.036;2022-08-25T11:46:40;12.70;;;7.50;;
5058;SDS011;2548;52.050;11.036;2022-08-25T11:55:14;12.07;;;8.30;;
5058;SDS011;2548;52.050;11.036;2022-08-25T11:57:45;11.23;;;8.23;;
5058;SDS011;2548;52.050;11.036;2022-08-25T12:00:18;9.63;;;8.73;;
5058;SDS011;2548;52.050;11.036;2022-08-25T12:06:15;14.87;;;7.97;;
5058;SDS011;2548;52.050;11.036;2022-08-25T12:08:51;16.27;;;7.57;;
5058;SDS011;2548;52.050;11.036;2022-08-25T12:11:47;11.70;;;7.70;;
5058;SDS011;2548;52.050;11.036;2022-08-25T12:17:20;10.93;;;7.30;;
5058;SDS011;2548;52.050;11.036;2022-08-25T12:19:51;9.40;;;7.50;;
5058;SDS011;2548;52.050;11.036;2022-08-25T12:25:30;12.43;;;9.00;;
5058;SDS011;2548;52.050;11.036;2022-08-25T12:28:14;20.53;;;8.20;;
5058;SDS011;2548;52.050;11.036;2022-08-25T12:30:54;14.90;;;8.10;;
5058;SDS011;2548;52.050;11.036;2022-08-25T12:33:28;15.70;;;8.27;;
5058;SDS011;2548;52.050;11.036;2022-08-25T12:36:05;15.63;;;6.83;;
5058;SDS011;2548;52.050;11.036;2022-08-25T12:38:37;19.27;;;8.03;;
5058;SDS011;2548;52.050;11.036;2022-08-25T12:41:10;12.20;;;7.90;;
5058;SDS011;2548;52.050;11.036;2022-08-25T12:43:39;10.30;;;7.60;;
5058;SDS011;2548;52.050;11.036;2022-08-25T12:49:00;13.43;;;7.90;;
5058;SDS011;2548;52.050;11.036;2022-08-25T12:54:23;11.40;;;7.60;;
5058;SDS011;2548;52.050;11.036;2022-08-25T12:56:58;10.27;;;7.70;;
5058;SDS011;2548;52.050;11.036;2022-08-25T12:59:34;11.33;;;7.27;;
5058;SDS011;2548;52.050;11.036;2022-08-25T13:02:08;19.07;;;7.97;;
5058;SDS011;2548;52.050;11.036;2022-08-25T13:05:16;8.63;;;7.30;;
5058;SDS011;2548;52.050;11.036;2022-08-25T13:11:13;14.83;;;8.43;;
5058;SDS011;2548;52.050;11.036;2022-08-25T13:13:46;10.13;;;7.00;;
5058;SDS011;2548;52.050;11.036;2022-08-25T13:16:18;15.47;;;7.33;;
5058;SDS011;2548;52.050;11.036;2022-08-25T13:18:48;22.10;;;9.23;;
5058;SDS011;2548;52.050;11.036;2022-08-25T13:21:17;19.57;;;8.87;;
5058;SDS011;2548;52.050;11.036;2022-08-25T13:23:47;10.73;;;8.00;;
5058;SDS011;2548;52.050;11.036;2022-08-25T13:26:20;14.67;;;8.07;;
5058;SDS011;2548;52.050;11.036;2022-08-25T13:28:51;21.17;;;9.33;;
5058;SDS011;2548;52.050;11.036;2022-08-25T13:31:22;13.77;;;9.00;;
5058;SDS011;2548;52.050;11.036;2022-08-25T13:33:54;17.10;;;8.20;;
5058;SDS011;2548;52.050;11.036;2022-08-25T13:36:23;12.90;;;8.43;;
5058;SDS011;2548;52.050;11.036;2022-08-25T13:39:10;14.50;;;9.27;;
5058;SDS011;2548;52.050;11.036;2022-08-25T13:41:44;19.13;;;9.23;;
5058;SDS011;2548;52.050;11.036;2022-08-25T13:44:13;24.13;;;9.03;;
5058;SDS011;2548;52.050;11.036;2022-08-25T13:46:42;19.73;;;9.00;;
5058;SDS011;2548;52.050;11.036;2022-08-25T13:49:11;30.33;;;8.70;;
5058;SDS011;2548;52.050;11.036;2022-08-25T13:51:51;13.93;;;7.83;;
5058;SDS011;2548;52.050;11.036;2022-08-25T13:54:23;18.03;;;8.43;;
5058;SDS011;2548;52.050;11.036;2022-08-25T13:56:54;25.37;;;9.37;;
5058;SDS011;2548;52.050;11.036;2022-08-25T13:59:34;21.10;;;9.10;;
5058;SDS011;2548;52.050;11.036;2022-08-25T14:02:05;23.90;;;10.53;;
5058;SDS011;2548;52.050;11.036;2022-08-25T14:04:43;16.03;;;7.63;;
5058;SDS011;2548;52.050;11.036;2022-08-25T14:07:25;16.67;;;9.00;;
5058;SDS011;2548;52.050;11.036;2022-08-25T14:09:55;11.60;;;8.47;;
5058;SDS011;2548;52.050;11.036;2022-08-25T14:12:26;12.27;;;7.33;;
5058;SDS011;2548;52.050;11.036;2022-08-25T14:14:57;19.33;;;8.03;;
5058;SDS011;2548;52.050;11.036;2022-08-25T14:17:26;20.03;;;8.63;;
5058;SDS011;2548;52.050;11.036;2022-08-25T14:19:54;16.80;;;8.70;;
5058;SDS011;2548;52.050;11.036;2022-08-25T14:22:23;20.40;;;8.57;;
5058;SDS011;2548;52.050;11.036;2022-08-25T14:24:51;23.33;;;8.73;;
5058;SDS011;2548;52.050;11.036;2022-08-25T14:27:20;12.13;;;7.37;;
5058;SDS011;2548;52.050;11.036;2022-08-25T14:29:49;18.63;;;8.53;;
5058;SDS011;2548;52.050;11.036;2022-08-25T14:32:17;11.80;;;7.17;;
5058;SDS011;2548;52.050;11.036;2022-08-25T14:34:45;12.53;;;7.77;;
5058;SDS011;2548;52.050;11.036;2022-08-25T14:37:13;18.93;;;7.83;;
5058;SDS011;2548;52.050;11.036;2022-08-25T14:39:43;20.27;;;9.47;;
5058;SDS011;2548;52.050;11.036;2022-08-25T14:42:11;13.63;;;7.43;;
5058;SDS011;2548;52.050;11.036;2022-08-25T14:44:40;17.97;;;6.83;;
5058;SDS011;2548;52.050;11.036;2022-08-25T14:47:09;20.17;;;8.07;;
5058;SDS011;2548;52.050;11.036;2022-08-25T14:49:37;16.13;;;7.30;;
5058;SDS011;2548;52.050;11.036;2022-08-25T14:52:12;8.93;;;6.30;;
5058;SDS011;2548;52.050;11.036;2022-08-25T14:54:44;10.73;;;7.00;;
5058;SDS011;2548;52.050;11.036;2022-08-25T14:57:12;14.17;;;7.37;;
5058;SDS011;2548;52.050;11.036;2022-08-25T14:59:40;24.47;;;7.43;;
5058;SDS011;2548;52.050;11.036;2022-08-25T15:02:09;15.40;;;6.97;;
5058;SDS011;2548;52.050;11.036;2022-08-25T15:04:38;16.20;;;6.00;;
5058;SDS011;2548;52.050;11.036;2022-08-25T15:07:06;13.90;;;7.53;;
5058;SDS011;2548;52.050;11.036;2022-08-25T15:09:48;25.17;;;7.77;;
5058;SDS011;2548;52.050;11.036;2022-08-25T15:12:15;13.97;;;6.73;;
5058;SDS011;2548;52.050;11.036;2022-08-25T15:14:43;11.40;;;6.50;;
5058;SDS011;2548;52.050;11.036;2022-08-25T15:17:12;19.73;;;6.57;;
5058;SDS011;2548;52.050;11.036;2022-08-25T15:19:40;18.37;;;7.10;;
5058;SDS011;2548;52.050;11.036;2022-08-25T15:22:08;10.00;;;6.13;;
5058;SDS011;2548;52.050;11.036;2022-08-25T15:24:36;12.17;;;6.57;;
5058;SDS011;2548;52.050;11.036;2022-08-25T15:27:04;20.07;;;6.53;;
5058;SDS011;2548;52.050;11.036;2022-08-25T15:29:34;25.80;;;7.13;;
5058;SDS011;2548;52.050;11.036;2022-08-25T15:32:04;20.33;;;6.50;;
5058;SDS011;2548;52.050;11.036;2022-08-25T15:34:34;15.07;;;7.53;;
5058;SDS011;2548;52.050;11.036;2022-08-25T15:37:05;16.13;;;7.30;;
5058;SDS011;2548;52.050;11.036;2022-08-25T15:39:35;27.23;;;9.17;;
5058;SDS011;2548;52.050;11.036;2022-08-25T15:42:03;15.57;;;7.03;;